sensor_id;sensor_type;location;lat;lon;timestamp;temperature;humidity
24338;DHT22;12457;50.832;4.346;2022-11-30T00:00:55;7.10;99.90
24338;DHT22;12457;50.832;4.346;2022-11-30T00:03:21;7.00;99.90
24338;DHT22;12457;50.832;4.346;2022-11-30T00:05:46;6.90;99.90
24338;DHT22;12457;50.832;4.346;2022-11-30T00:08:12;7.00;99.90
24338;DHT22;12457;50.832;4.346;2022-11-30T00:10:38;6.90;99.90
24338;DHT22;12457;50.832;4.346;2022-11-30T00:13:04;7.00;99.90
24338;DHT22;12457;50.832;4.346;2022-11-30T00:15:30;7.00;99.90
24338;DHT22;12457;50.832;4.346;2022-11-30T00:17:57;7.00;99.90
24338;DHT22;12457;50.832;4.346;2022-11-30T00:20:23;6.90;99.90
24338;DHT22;12457;50.832;4.346;2022-11-30T00:22:48;6.90;99.90
24338;DHT22;12457;50.832;4.346;2022-11-30T00:25:14;7.00;99.90
24338;DHT22;12457;50.832;4.346;2022-11-30T00:27:40;7.20;99.90
24338;DHT22;12457;50.832;4.346;2022-11-30T00:30:06;7.10;99.90
24338;DHT22;12457;50.832;4.346;2022-11-30T00:32:32;7.10;99.90
24338;DHT22;12457;50.832;4.346;2022-11-30T00:34:58;7.10;99.90
24338;DHT22;12457;50.832;4.346;2022-11-30T00:37:23;7.10;99.90
24338;DHT22;12457;50.832;4.346;2022-11-30T00:39:49;7.10;99.90
24338;DHT22;12457;50.832;4.346;2022-11-30T00:42:15;7.10;99.90
24338;DHT22;12457;50.832;4.346;2022-11-30T00:44:40;7.00;99.90
24338;DHT22;12457;50.832;4.346;2022-11-30T00:47:06;7.00;99.90
24338;DHT22;12457;50.832;4.346;2022-11-30T00:49:32;7.10;99.90
24338;DHT22;12457;50.832;4.346;2022-11-30T00:51:59;7.10;99.90
24338;DHT22;12457;50.832;4.346;2022-11-30T00:54:24;7.10;99.90
24338;DHT22;12457;50.832;4.346;2022-11-30T00:56:50;7.00;99.90
24338;DHT22;12457;50.832;4.346;2022-11-30T00:59:16;7.00;99.90
24338;DHT22;12457;50.832;4.346;2022-11-30T01:01:41;7.00;99.90
24338;DHT22;12457;50.832;4.346;2022-11-30T01:04:07;7.00;99.90
24338;DHT22;12457;50.832;4.346;2022-11-30T01:06:33;7.10;99.90
24338;DHT22;12457;50.832;4.346;2022-11-30T01:08:59;7.10;99.90
24338;DHT22;12457;50.832;4.346;2022-11-30T01:11:28;7.00;99.90
24338;DHT22;12457;50.832;4.346;2022-11-30T01:13:56;7.10;99.90
24338;DHT22;12457;50.832;4.346;2022-11-30T01:16:25;7.00;99.90
24338;DHT22;12457;50.832;4.346;2022-11-30T01:18:51;6.90;99.90
24338;DHT22;12457;50.832;4.346;2022-11-30T01:21:21;7.10;99.90
24338;DHT22;12457;50.832;4.346;2022-11-30T01:23:47;7.10;99.90
24338;DHT22;12457;50.832;4.346;2022-11-30T01:26:13;7.00;99.90
24338;DHT22;12457;50.832;4.346;2022-11-30T01:28:38;7.10;99.90
24338;DHT22;12457;50.832;4.346;2022-11-30T01:31:08;7.10;99.90
24338;DHT22;12457;50.832;4.346;2022-11-30T01:33:34;7.20;99.90
24338;DHT22;12457;50.832;4.346;2022-11-30T01:36:04;7.30;99.90
24338;DHT22;12457;50.832;4.346;2022-11-30T01:38:41;7.30;99.90
24338;DHT22;12457;50.832;4.346;2022-11-30T01:41:08;7.40;99.90
24338;DHT22;12457;50.832;4.346;2022-11-30T01:43:43;7.40;99.90
24338;DHT22;12457;50.832;4.346;2022-11-30T01:49:05;7.40;99.90
24338;DHT22;12457;50.832;4.346;2022-11-30T01:51:41;7.40;99.90
24338;DHT22;12457;50.832;4.346;2022-11-30T01:54:11;7.50;99.90
24338;DHT22;12457;50.832;4.346;2022-11-30T01:56:48;7.50;99.90
24338;DHT22;12457;50.832;4.346;2022-11-30T01:59:14;7.40;99.90
24338;DHT22;12457;50.832;4.346;2022-11-30T02:01:40;7.40;99.90
24338;DHT22;12457;50.832;4.346;2022-11-30T02:04:31;7.40;99.90
24338;DHT22;12457;50.832;4.346;2022-11-30T02:06:58;7.40;99.90
24338;DHT22;12457;50.832;4.346;2022-11-30T02:09:25;7.40;99.90
24338;DHT22;12457;50.832;4.346;2022-11-30T02:11:51;7.50;99.90
24338;DHT22;12457;50.832;4.346;2022-11-30T02:14:34;7.50;99.90
24338;DHT22;12457;50.832;4.346;2022-11-30T02:17:19;7.50;99.90
24338;DHT22;12457;50.832;4.346;2022-11-30T02:23:37;7.30;99.90
24338;DHT22;12457;50.832;4.346;2022-11-30T02:26:16;7.40;99.90
24338;DHT22;12457;50.832;4.346;2022-11-30T02:28:54;7.30;99.90
24338;DHT22;12457;50.832;4.346;2022-11-30T02:31:25;7.30;99.90
24338;DHT22;12457;50.832;4.346;2022-11-30T02:33:55;7.40;99.90
24338;DHT22;12457;50.832;4.346;2022-11-30T02:36:22;7.30;99.90
24338;DHT22;12457;50.832;4.346;2022-11-30T02:38:48;7.50;99.90
24338;DHT22;12457;50.832;4.346;2022-11-30T02:41:14;7.40;99.90
24338;DHT22;12457;50.832;4.346;2022-11-30T02:43:40;7.50;99.90
24338;DHT22;12457;50.832;4.346;2022-11-30T02:49:02;7.70;99.90
24338;DHT22;12457;50.832;4.346;2022-11-30T02:51:31;7.60;99.90
24338;DHT22;12457;50.832;4.346;2022-11-30T02:53:58;7.60;99.90
24338;DHT22;12457;50.832;4.346;2022-11-30T02:56:24;7.50;99.90
24338;DHT22;12457;50.832;4.346;2022-11-30T02:58:50;7.40;99.90
24338;DHT22;12457;50.832;4.346;2022-11-30T03:01:17;7.30;99.90
24338;DHT22;12457;50.832;4.346;2022-11-30T03:03:42;7.30;99.90
24338;DHT22;12457;50.832;4.346;2022-11-30T03:06:09;7.40;99.90
24338;DHT22;12457;50.832;4.346;2022-11-30T03:08:35;7.40;99.90
24338;DHT22;12457;50.832;4.346;2022-11-30T03:11:02;7.50;99.90
24338;DHT22;12457;50.832;4.346;2022-11-30T03:13:30;7.50;99.90
24338;DHT22;12457;50.832;4.346;2022-11-30T03:15:55;7.40;99.90
24338;DHT22;12457;50.832;4.346;2022-11-30T03:18:21;7.30;99.90
24338;DHT22;12457;50.832;4.346;2022-11-30T03:20:47;7.20;99.90
24338;DHT22;12457;50.832;4.346;2022-11-30T03:23:12;7.30;99.90
24338;DHT22;12457;50.832;4.346;2022-11-30T03:25:38;7.20;99.90
24338;DHT22;12457;50.832;4.346;2022-11-30T03:28:03;7.20;99.90
24338;DHT22;12457;50.832;4.346;2022-11-30T03:30:29;7.10;99.90
24338;DHT22;12457;50.832;4.346;2022-11-30T03:32:55;7.10;99.90
24338;DHT22;12457;50.832;4.346;2022-11-30T03:35:20;7.20;99.90
24338;DHT22;12457;50.832;4.346;2022-11-30T03:37:46;7.20;99.90
24338;DHT22;12457;50.832;4.346;2022-11-30T03:40:12;7.20;99.90
24338;DHT22;12457;50.832;4.346;2022-11-30T03:42:37;7.20;99.90
24338;DHT22;12457;50.832;4.346;2022-11-30T03:45:04;7.10;99.90
24338;DHT22;12457;50.832;4.346;2022-11-30T03:47:29;7.10;99.90
24338;DHT22;12457;50.832;4.346;2022-11-30T03:49:55;7.00;99.90
24338;DHT22;12457;50.832;4.346;2022-11-30T03:52:20;7.10;99.90
24338;DHT22;12457;50.832;4.346;2022-11-30T03:54:46;7.20;99.90
24338;DHT22;12457;50.832;4.346;2022-11-30T03:57:12;7.00;99.90
24338;DHT22;12457;50.832;4.346;2022-11-30T03:59:37;7.00;99.90
24338;DHT22;12457;50.832;4.346;2022-11-30T04:02:03;7.10;99.90
24338;DHT22;12457;50.832;4.346;2022-11-30T04:04:28;7.00;99.90
24338;DHT22;12457;50.832;4.346;2022-11-30T04:06:54;7.00;99.90
24338;DHT22;12457;50.832;4.346;2022-11-30T04:09:20;6.90;99.90
24338;DHT22;12457;50.832;4.346;2022-11-30T04:11:45;7.00;99.90
24338;DHT22;12457;50.832;4.346;2022-11-30T04:14:11;7.00;99.90
24338;DHT22;12457;50.832;4.346;2022-11-30T04:16:37;6.90;99.90
24338;DHT22;12457;50.832;4.346;2022-11-30T04:19:03;7.00;99.90
24338;DHT22;12457;50.832;4.346;2022-11-30T04:21:28;6.90;99.90
24338;DHT22;12457;50.832;4.346;2022-11-30T04:23:54;6.80;99.90
24338;DHT22;12457;50.832;4.346;2022-11-30T04:26:20;6.70;99.90
24338;DHT22;12457;50.832;4.346;2022-11-30T04:28:47;6.70;99.90
24338;DHT22;12457;50.832;4.346;2022-11-30T04:31:13;6.70;99.90
24338;DHT22;12457;50.832;4.346;2022-11-30T04:33:38;6.70;99.90
24338;DHT22;12457;50.832;4.346;2022-11-30T04:36:05;6.60;99.90
24338;DHT22;12457;50.832;4.346;2022-11-30T04:38:31;6.60;99.90
24338;DHT22;12457;50.832;4.346;2022-11-30T04:40:57;6.60;99.90
24338;DHT22;12457;50.832;4.346;2022-11-30T04:43:23;6.70;99.90
24338;DHT22;12457;50.832;4.346;2022-11-30T04:45:49;6.70;99.90
24338;DHT22;12457;50.832;4.346;2022-11-30T04:48:16;6.70;99.90
24338;DHT22;12457;50.832;4.346;2022-11-30T04:50:43;6.80;99.90
24338;DHT22;12457;50.832;4.346;2022-11-30T04:53:09;6.70;99.90
24338;DHT22;12457;50.832;4.346;2022-11-30T04:55:36;6.50;99.90
24338;DHT22;12457;50.832;4.346;2022-11-30T04:58:03;6.70;99.90
24338;DHT22;12457;50.832;4.346;2022-11-30T05:00:29;6.80;99.90
24338;DHT22;12457;50.832;4.346;2022-11-30T05:02:55;6.70;99.90
24338;DHT22;12457;50.832;4.346;2022-11-30T05:05:21;6.70;99.90
24338;DHT22;12457;50.832;4.346;2022-11-30T05:07:54;6.80;99.90
24338;DHT22;12457;50.832;4.346;2022-11-30T05:10:20;6.80;99.90
24338;DHT22;12457;50.832;4.346;2022-11-30T05:12:46;7.00;99.90
24338;DHT22;12457;50.832;4.346;2022-11-30T05:15:12;7.00;99.90
24338;DHT22;12457;50.832;4.346;2022-11-30T05:17:38;7.00;99.90
24338;DHT22;12457;50.832;4.346;2022-11-30T05:20:04;7.00;99.90
24338;DHT22;12457;50.832;4.346;2022-11-30T05:22:30;7.00;99.90
24338;DHT22;12457;50.832;4.346;2022-11-30T05:24:56;6.90;99.90
24338;DHT22;12457;50.832;4.346;2022-11-30T05:27:21;6.90;99.90
24338;DHT22;12457;50.832;4.346;2022-11-30T05:29:47;7.00;99.90
24338;DHT22;12457;50.832;4.346;2022-11-30T05:32:12;7.10;99.90
24338;DHT22;12457;50.832;4.346;2022-11-30T05:34:38;7.00;99.90
24338;DHT22;12457;50.832;4.346;2022-11-30T05:37:04;7.00;99.90
24338;DHT22;12457;50.832;4.346;2022-11-30T05:39:29;7.00;99.90
24338;DHT22;12457;50.832;4.346;2022-11-30T05:41:55;7.10;99.90
24338;DHT22;12457;50.832;4.346;2022-11-30T05:44:20;7.00;99.90
24338;DHT22;12457;50.832;4.346;2022-11-30T05:46:46;7.10;99.90
24338;DHT22;12457;50.832;4.346;2022-11-30T05:49:12;7.10;99.90
24338;DHT22;12457;50.832;4.346;2022-11-30T05:51:39;7.10;99.90
24338;DHT22;12457;50.832;4.346;2022-11-30T05:54:05;7.10;99.90
24338;DHT22;12457;50.832;4.346;2022-11-30T05:56:30;7.30;99.90
24338;DHT22;12457;50.832;4.346;2022-11-30T05:58:56;7.30;99.90
24338;DHT22;12457;50.832;4.346;2022-11-30T06:01:24;7.40;99.90
24338;DHT22;12457;50.832;4.346;2022-11-30T06:03:50;7.40;99.90
24338;DHT22;12457;50.832;4.346;2022-11-30T06:06:16;7.30;99.90
24338;DHT22;12457;50.832;4.346;2022-11-30T06:08:43;7.40;99.90
24338;DHT22;12457;50.832;4.346;2022-11-30T06:11:09;7.30;99.90
24338;DHT22;12457;50.832;4.346;2022-11-30T06:13:35;7.30;99.90
24338;DHT22;12457;50.832;4.346;2022-11-30T06:16:02;7.20;99.90
24338;DHT22;12457;50.832;4.346;2022-11-30T06:18:28;7.20;99.90
24338;DHT22;12457;50.832;4.346;2022-11-30T06:20:58;7.10;99.90
24338;DHT22;12457;50.832;4.346;2022-11-30T06:23:23;7.00;99.90
24338;DHT22;12457;50.832;4.346;2022-11-30T06:25:49;7.00;99.90
24338;DHT22;12457;50.832;4.346;2022-11-30T06:28:14;7.10;99.90
24338;DHT22;12457;50.832;4.346;2022-11-30T06:30:40;7.30;99.90
24338;DHT22;12457;50.832;4.346;2022-11-30T06:33:06;7.20;99.90
24338;DHT22;12457;50.832;4.346;2022-11-30T06:35:31;7.00;99.90
24338;DHT22;12457;50.832;4.346;2022-11-30T06:37:57;7.00;99.90
24338;DHT22;12457;50.832;4.346;2022-11-30T06:40:25;7.10;99.90
24338;DHT22;12457;50.832;4.346;2022-11-30T06:42:50;7.20;99.90
24338;DHT22;12457;50.832;4.346;2022-11-30T06:45:16;7.30;99.90
24338;DHT22;12457;50.832;4.346;2022-11-30T06:47:41;7.30;99.90
24338;DHT22;12457;50.832;4.346;2022-11-30T06:50:07;7.30;99.90
24338;DHT22;12457;50.832;4.346;2022-11-30T06:52:33;7.30;99.90
24338;DHT22;12457;50.832;4.346;2022-11-30T06:54:59;7.10;99.90
24338;DHT22;12457;50.832;4.346;2022-11-30T06:57:28;7.10;99.90
24338;DHT22;12457;50.832;4.346;2022-11-30T06:59:54;7.20;99.90
24338;DHT22;12457;50.832;4.346;2022-11-30T07:02:20;7.20;99.90
24338;DHT22;12457;50.832;4.346;2022-11-30T07:04:46;7.20;99.90
24338;DHT22;12457;50.832;4.346;2022-11-30T07:07:11;7.20;99.90
24338;DHT22;12457;50.832;4.346;2022-11-30T07:09:37;7.20;99.90
24338;DHT22;12457;50.832;4.346;2022-11-30T07:12:03;7.30;99.90
24338;DHT22;12457;50.832;4.346;2022-11-30T07:14:29;7.00;99.90
24338;DHT22;12457;50.832;4.346;2022-11-30T07:16:56;7.00;99.90
24338;DHT22;12457;50.832;4.346;2022-11-30T07:19:22;7.10;99.90
24338;DHT22;12457;50.832;4.346;2022-11-30T07:21:48;7.10;99.90
24338;DHT22;12457;50.832;4.346;2022-11-30T07:24:13;7.10;99.90
24338;DHT22;12457;50.832;4.346;2022-11-30T07:26:59;6.90;99.90
24338;DHT22;12457;50.832;4.346;2022-11-30T07:29:26;6.80;99.90
24338;DHT22;12457;50.832;4.346;2022-11-30T07:31:52;6.80;99.90
24338;DHT22;12457;50.832;4.346;2022-11-30T07:34:18;6.90;99.90
24338;DHT22;12457;50.832;4.346;2022-11-30T07:36:44;7.00;99.90
24338;DHT22;12457;50.832;4.346;2022-11-30T07:39:11;7.00;99.90
24338;DHT22;12457;50.832;4.346;2022-11-30T07:41:37;7.10;99.90
24338;DHT22;12457;50.832;4.346;2022-11-30T07:44:04;7.00;99.90
24338;DHT22;12457;50.832;4.346;2022-11-30T07:46:30;7.10;99.90
24338;DHT22;12457;50.832;4.346;2022-11-30T07:48:58;7.00;99.90
24338;DHT22;12457;50.832;4.346;2022-11-30T07:51:24;6.80;99.90
24338;DHT22;12457;50.832;4.346;2022-11-30T07:53:49;6.90;99.90
24338;DHT22;12457;50.832;4.346;2022-11-30T07:56:19;6.90;99.90
24338;DHT22;12457;50.832;4.346;2022-11-30T07:58:45;7.00;99.90
24338;DHT22;12457;50.832;4.346;2022-11-30T08:01:15;7.30;99.90
24338;DHT22;12457;50.832;4.346;2022-11-30T08:03:41;7.20;99.90
24338;DHT22;12457;50.832;4.346;2022-11-30T08:06:12;7.10;99.90
24338;DHT22;12457;50.832;4.346;2022-11-30T08:08:43;7.10;99.90
24338;DHT22;12457;50.832;4.346;2022-11-30T08:11:10;7.10;99.90
24338;DHT22;12457;50.832;4.346;2022-11-30T08:13:36;7.00;99.90
24338;DHT22;12457;50.832;4.346;2022-11-30T08:16:04;6.90;99.90
24338;DHT22;12457;50.832;4.346;2022-11-30T08:18:30;6.90;99.90
24338;DHT22;12457;50.832;4.346;2022-11-30T08:20:57;6.80;99.90
24338;DHT22;12457;50.832;4.346;2022-11-30T08:23:30;6.90;99.90
24338;DHT22;12457;50.832;4.346;2022-11-30T08:26:02;7.20;99.90
24338;DHT22;12457;50.832;4.346;2022-11-30T08:28:29;7.20;99.90
24338;DHT22;12457;50.832;4.346;2022-11-30T08:31:01;7.10;99.90
24338;DHT22;12457;50.832;4.346;2022-11-30T08:33:29;7.10;99.90
24338;DHT22;12457;50.832;4.346;2022-11-30T08:36:05;7.10;99.90
24338;DHT22;12457;50.832;4.346;2022-11-30T08:38:30;7.10;99.90
24338;DHT22;12457;50.832;4.346;2022-11-30T08:40:57;7.00;99.90
24338;DHT22;12457;50.832;4.346;2022-11-30T08:43:23;6.90;99.90
24338;DHT22;12457;50.832;4.346;2022-11-30T08:45:48;6.90;99.90
24338;DHT22;12457;50.832;4.346;2022-11-30T08:48:14;6.90;99.90
24338;DHT22;12457;50.832;4.346;2022-11-30T08:50:39;7.00;99.90
24338;DHT22;12457;50.832;4.346;2022-11-30T08:53:05;6.90;99.90
24338;DHT22;12457;50.832;4.346;2022-11-30T08:55:31;6.90;99.90
24338;DHT22;12457;50.832;4.346;2022-11-30T08:57:57;7.00;99.90
24338;DHT22;12457;50.832;4.346;2022-11-30T09:00:23;7.00;99.90
24338;DHT22;12457;50.832;4.346;2022-11-30T09:02:48;7.10;99.90
24338;DHT22;12457;50.832;4.346;2022-11-30T09:05:14;7.10;99.90
24338;DHT22;12457;50.832;4.346;2022-11-30T09:07:40;7.20;99.90
24338;DHT22;12457;50.832;4.346;2022-11-30T09:10:06;7.40;99.90
24338;DHT22;12457;50.832;4.346;2022-11-30T09:12:39;7.70;99.90
24338;DHT22;12457;50.832;4.346;2022-11-30T09:15:06;7.60;99.90
24338;DHT22;12457;50.832;4.346;2022-11-30T09:17:32;7.40;99.90
24338;DHT22;12457;50.832;4.346;2022-11-30T09:19:58;7.40;99.90
24338;DHT22;12457;50.832;4.346;2022-11-30T09:22:24;7.40;99.90
24338;DHT22;12457;50.832;4.346;2022-11-30T09:24:51;7.40;99.90
24338;DHT22;12457;50.832;4.346;2022-11-30T09:27:17;7.40;99.90
24338;DHT22;12457;50.832;4.346;2022-11-30T09:29:42;7.40;99.90
24338;DHT22;12457;50.832;4.346;2022-11-30T09:32:08;7.20;99.90
24338;DHT22;12457;50.832;4.346;2022-11-30T09:34:34;7.20;99.90
24338;DHT22;12457;50.832;4.346;2022-11-30T09:36:59;7.30;99.90
24338;DHT22;12457;50.832;4.346;2022-11-30T09:39:25;7.40;99.90
24338;DHT22;12457;50.832;4.346;2022-11-30T09:44:42;7.60;99.90
24338;DHT22;12457;50.832;4.346;2022-11-30T09:47:34;7.70;99.90
24338;DHT22;12457;50.832;4.346;2022-11-30T09:50:14;7.80;99.90
24338;DHT22;12457;50.832;4.346;2022-11-30T09:52:57;7.70;99.90
24338;DHT22;12457;50.832;4.346;2022-11-30T09:55:40;7.70;99.90
24338;DHT22;12457;50.832;4.346;2022-11-30T09:58:10;7.80;99.90
24338;DHT22;12457;50.832;4.346;2022-11-30T10:00:38;8.00;99.90
24338;DHT22;12457;50.832;4.346;2022-11-30T10:03:05;8.00;99.90
24338;DHT22;12457;50.832;4.346;2022-11-30T10:06:07;8.20;99.90
24338;DHT22;12457;50.832;4.346;2022-11-30T10:11:27;8.10;99.90
24338;DHT22;12457;50.832;4.346;2022-11-30T10:14:20;8.30;99.90
24338;DHT22;12457;50.832;4.346;2022-11-30T10:17:33;8.30;99.90
24338;DHT22;12457;50.832;4.346;2022-11-30T10:20:24;8.10;99.90
24338;DHT22;12457;50.832;4.346;2022-11-30T10:23:10;8.10;99.90
24338;DHT22;12457;50.832;4.346;2022-11-30T10:31:10;8.00;99.90
24338;DHT22;12457;50.832;4.346;2022-11-30T10:33:46;8.00;99.90
24338;DHT22;12457;50.832;4.346;2022-11-30T10:36:36;8.10;99.90
24338;DHT22;12457;50.832;4.346;2022-11-30T10:39:05;8.30;99.90
24338;DHT22;12457;50.832;4.346;2022-11-30T10:41:52;8.40;99.90
24338;DHT22;12457;50.832;4.346;2022-11-30T10:44:26;8.20;99.90
24338;DHT22;12457;50.832;4.346;2022-11-30T10:47:09;8.20;99.90
24338;DHT22;12457;50.832;4.346;2022-11-30T10:49:37;8.20;99.90
24338;DHT22;12457;50.832;4.346;2022-11-30T10:52:07;8.40;99.90
24338;DHT22;12457;50.832;4.346;2022-11-30T10:54:34;8.30;99.90
24338;DHT22;12457;50.832;4.346;2022-11-30T10:57:02;8.60;99.90
24338;DHT22;12457;50.832;4.346;2022-11-30T10:59:44;8.70;99.90
24338;DHT22;12457;50.832;4.346;2022-11-30T11:05:20;8.80;99.90
24338;DHT22;12457;50.832;4.346;2022-11-30T11:13:04;8.90;99.90
24338;DHT22;12457;50.832;4.346;2022-11-30T11:15:32;9.10;99.90
24338;DHT22;12457;50.832;4.346;2022-11-30T11:18:23;9.00;99.90
24338;DHT22;12457;50.832;4.346;2022-11-30T11:23:36;8.80;99.90
24338;DHT22;12457;50.832;4.346;2022-11-30T11:26:14;8.90;99.90
24338;DHT22;12457;50.832;4.346;2022-11-30T11:28:44;8.90;99.90
24338;DHT22;12457;50.832;4.346;2022-11-30T11:31:38;8.80;99.90
24338;DHT22;12457;50.832;4.346;2022-11-30T11:34:26;8.80;99.90
24338;DHT22;12457;50.832;4.346;2022-11-30T11:37:18;8.70;99.90
24338;DHT22;12457;50.832;4.346;2022-11-30T11:40:12;8.70;99.90
24338;DHT22;12457;50.832;4.346;2022-11-30T11:42:50;8.60;99.90
24338;DHT22;12457;50.832;4.346;2022-11-30T11:45:20;8.50;99.90
24338;DHT22;12457;50.832;4.346;2022-11-30T11:47:47;8.40;99.90
24338;DHT22;12457;50.832;4.346;2022-11-30T11:50:41;8.40;99.90
24338;DHT22;12457;50.832;4.346;2022-11-30T11:53:18;8.40;99.90
24338;DHT22;12457;50.832;4.346;2022-11-30T11:55:50;8.40;99.90
24338;DHT22;12457;50.832;4.346;2022-11-30T11:58:24;8.30;99.90
24338;DHT22;12457;50.832;4.346;2022-11-30T12:00:50;8.30;99.90
24338;DHT22;12457;50.832;4.346;2022-11-30T12:03:54;8.50;99.90
24338;DHT22;12457;50.832;4.346;2022-11-30T12:06:21;8.60;99.90
24338;DHT22;12457;50.832;4.346;2022-11-30T12:11:52;8.50;99.90
24338;DHT22;12457;50.832;4.346;2022-11-30T12:14:18;8.30;99.90
24338;DHT22;12457;50.832;4.346;2022-11-30T12:20:22;8.40;99.90
24338;DHT22;12457;50.832;4.346;2022-11-30T12:23:00;8.60;99.90
24338;DHT22;12457;50.832;4.346;2022-11-30T12:25:30;8.60;99.90
24338;DHT22;12457;50.832;4.346;2022-11-30T12:28:19;8.60;99.90
24338;DHT22;12457;50.832;4.346;2022-11-30T12:31:13;8.80;99.90
24338;DHT22;12457;50.832;4.346;2022-11-30T12:33:57;9.00;99.90
24338;DHT22;12457;50.832;4.346;2022-11-30T12:39:41;9.10;99.90
24338;DHT22;12457;50.832;4.346;2022-11-30T12:42:45;9.20;99.90
24338;DHT22;12457;50.832;4.346;2022-11-30T12:45:14;9.20;99.90
24338;DHT22;12457;50.832;4.346;2022-11-30T12:50:51;9.30;99.90
24338;DHT22;12457;50.832;4.346;2022-11-30T12:56:23;9.50;99.90
24338;DHT22;12457;50.832;4.346;2022-11-30T12:59:03;9.50;99.90
24338;DHT22;12457;50.832;4.346;2022-11-30T13:04:41;9.40;99.90
24338;DHT22;12457;50.832;4.346;2022-11-30T13:07:33;9.40;99.90
24338;DHT22;12457;50.832;4.346;2022-11-30T13:12:40;9.30;99.90
24338;DHT22;12457;50.832;4.346;2022-11-30T13:15:19;9.30;99.90
24338;DHT22;12457;50.832;4.346;2022-11-30T13:17:46;9.30;99.90
24338;DHT22;12457;50.832;4.346;2022-11-30T13:20:21;9.50;99.90
24338;DHT22;12457;50.832;4.346;2022-11-30T13:25:28;9.40;99.90
24338;DHT22;12457;50.832;4.346;2022-11-30T13:31:00;9.30;99.90
24338;DHT22;12457;50.832;4.346;2022-11-30T13:41:34;9.30;99.90
24338;DHT22;12457;50.832;4.346;2022-11-30T13:44:01;9.30;99.90
24338;DHT22;12457;50.832;4.346;2022-11-30T13:46:27;9.30;99.90
24338;DHT22;12457;50.832;4.346;2022-11-30T13:49:20;9.40;99.90
24338;DHT22;12457;50.832;4.346;2022-11-30T13:51:46;9.30;99.90
24338;DHT22;12457;50.832;4.346;2022-11-30T13:54:47;9.30;99.90
24338;DHT22;12457;50.832;4.346;2022-11-30T13:57:18;9.30;99.90
24338;DHT22;12457;50.832;4.346;2022-11-30T14:05:51;9.20;99.90
24338;DHT22;12457;50.832;4.346;2022-11-30T14:10:47;9.20;99.90
24338;DHT22;12457;50.832;4.346;2022-11-30T14:23:18;9.00;99.90
24338;DHT22;12457;50.832;4.346;2022-11-30T14:25:49;8.90;99.90
24338;DHT22;12457;50.832;4.346;2022-11-30T14:28:18;8.80;99.90
24338;DHT22;12457;50.832;4.346;2022-11-30T14:30:45;8.90;99.90
24338;DHT22;12457;50.832;4.346;2022-11-30T14:33:16;8.70;99.90
24338;DHT22;12457;50.832;4.346;2022-11-30T14:35:43;8.40;99.90
24338;DHT22;12457;50.832;4.346;2022-11-30T14:38:26;8.40;99.90
24338;DHT22;12457;50.832;4.346;2022-11-30T14:40:53;8.40;99.90
24338;DHT22;12457;50.832;4.346;2022-11-30T14:43:19;8.70;99.90
24338;DHT22;12457;50.832;4.346;2022-11-30T14:46:03;8.70;99.90
24338;DHT22;12457;50.832;4.346;2022-11-30T14:48:29;8.70;99.90
24338;DHT22;12457;50.832;4.346;2022-11-30T14:51:00;8.60;99.90
24338;DHT22;12457;50.832;4.346;2022-11-30T14:53:50;8.50;99.90
24338;DHT22;12457;50.832;4.346;2022-11-30T14:59:43;8.50;99.90
24338;DHT22;12457;50.832;4.346;2022-11-30T15:02:18;8.40;99.90
24338;DHT22;12457;50.832;4.346;2022-11-30T15:04:47;8.30;99.90
24338;DHT22;12457;50.832;4.346;2022-11-30T15:07:14;8.30;99.90
24338;DHT22;12457;50.832;4.346;2022-11-30T15:09:43;8.20;99.90
24338;DHT22;12457;50.832;4.346;2022-11-30T15:12:18;8.20;99.90
24338;DHT22;12457;50.832;4.346;2022-11-30T15:15:05;8.20;99.90
24338;DHT22;12457;50.832;4.346;2022-11-30T15:17:33;8.20;99.90
24338;DHT22;12457;50.832;4.346;2022-11-30T15:20:16;8.20;99.90
24338;DHT22;12457;50.832;4.346;2022-11-30T15:22:43;8.10;99.90
24338;DHT22;12457;50.832;4.346;2022-11-30T15:25:11;8.10;99.90
24338;DHT22;12457;50.832;4.346;2022-11-30T15:27:37;8.20;99.90
24338;DHT22;12457;50.832;4.346;2022-11-30T15:30:03;8.10;99.90
24338;DHT22;12457;50.832;4.346;2022-11-30T15:32:29;8.20;99.90
24338;DHT22;12457;50.832;4.346;2022-11-30T15:34:56;8.10;99.90
24338;DHT22;12457;50.832;4.346;2022-11-30T15:37:29;8.00;99.90
24338;DHT22;12457;50.832;4.346;2022-11-30T15:39:57;8.00;99.90
24338;DHT22;12457;50.832;4.346;2022-11-30T15:42:32;8.00;99.90
24338;DHT22;12457;50.832;4.346;2022-11-30T15:45:25;7.90;99.90
24338;DHT22;12457;50.832;4.346;2022-11-30T15:47:52;7.90;99.90
24338;DHT22;12457;50.832;4.346;2022-11-30T15:52:51;7.80;99.90
24338;DHT22;12457;50.832;4.346;2022-11-30T15:55:44;7.80;99.90
24338;DHT22;12457;50.832;4.346;2022-11-30T16:01:20;7.70;99.90
24338;DHT22;12457;50.832;4.346;2022-11-30T16:04:05;7.70;99.90
24338;DHT22;12457;50.832;4.346;2022-11-30T16:06:34;7.70;99.90
24338;DHT22;12457;50.832;4.346;2022-11-30T16:09:22;7.70;99.90
24338;DHT22;12457;50.832;4.346;2022-11-30T16:11:51;7.60;99.90
24338;DHT22;12457;50.832;4.346;2022-11-30T16:14:18;7.60;99.90
24338;DHT22;12457;50.832;4.346;2022-11-30T16:16:44;7.60;99.90
24338;DHT22;12457;50.832;4.346;2022-11-30T16:19:10;7.50;99.90
24338;DHT22;12457;50.832;4.346;2022-11-30T16:21:36;7.60;99.90
24338;DHT22;12457;50.832;4.346;2022-11-30T16:24:02;7.80;99.90
24338;DHT22;12457;50.832;4.346;2022-11-30T16:26:28;7.70;99.90
24338;DHT22;12457;50.832;4.346;2022-11-30T16:28:53;7.70;99.90
24338;DHT22;12457;50.832;4.346;2022-11-30T16:31:23;7.70;99.90
24338;DHT22;12457;50.832;4.346;2022-11-30T16:33:50;7.70;99.90
24338;DHT22;12457;50.832;4.346;2022-11-30T16:36:18;7.70;99.90
24338;DHT22;12457;50.832;4.346;2022-11-30T16:38:46;7.70;99.90
24338;DHT22;12457;50.832;4.346;2022-11-30T16:41:22;7.80;99.90
24338;DHT22;12457;50.832;4.346;2022-11-30T16:43:50;7.80;99.90
24338;DHT22;12457;50.832;4.346;2022-11-30T16:46:27;7.70;99.90
24338;DHT22;12457;50.832;4.346;2022-11-30T16:48:53;7.70;99.90
24338;DHT22;12457;50.832;4.346;2022-11-30T16:53:45;7.80;99.90
24338;DHT22;12457;50.832;4.346;2022-11-30T16:56:12;7.70;99.90
24338;DHT22;12457;50.832;4.346;2022-11-30T16:58:38;7.70;99.90
24338;DHT22;12457;50.832;4.346;2022-11-30T17:01:06;7.70;99.90
24338;DHT22;12457;50.832;4.346;2022-11-30T17:03:35;7.60;99.90
24338;DHT22;12457;50.832;4.346;2022-11-30T17:06:01;7.60;99.90
24338;DHT22;12457;50.832;4.346;2022-11-30T17:08:27;7.60;99.90
24338;DHT22;12457;50.832;4.346;2022-11-30T17:10:53;7.60;99.90
24338;DHT22;12457;50.832;4.346;2022-11-30T17:13:19;7.60;99.90
24338;DHT22;12457;50.832;4.346;2022-11-30T17:15:45;7.70;99.90
24338;DHT22;12457;50.832;4.346;2022-11-30T17:18:11;7.60;99.90
24338;DHT22;12457;50.832;4.346;2022-11-30T17:20:37;7.60;99.90
24338;DHT22;12457;50.832;4.346;2022-11-30T17:23:04;7.60;99.90
24338;DHT22;12457;50.832;4.346;2022-11-30T17:25:30;7.60;99.90
24338;DHT22;12457;50.832;4.346;2022-11-30T17:27:55;7.60;99.90
24338;DHT22;12457;50.832;4.346;2022-11-30T17:30:21;7.60;99.90
24338;DHT22;12457;50.832;4.346;2022-11-30T17:32:49;7.70;99.90
24338;DHT22;12457;50.832;4.346;2022-11-30T17:35:18;7.70;99.90
24338;DHT22;12457;50.832;4.346;2022-11-30T17:37:44;7.80;99.90